Time;durP1;ratioP1;P1;durP2;ratioP2;P2;SDS_P1;SDS_P2;PMS_P1;PMS_P2;Temp;Humidity;BMP_temperature;BMP_pressure;BME280_temperature;BME280_humidity;BME280_pressure;Samples;Min_cycle;Max_cycle;Signal;HPM_P1;HPM_P2
2022/05/25 00:01:51;;;;;;;2.22;2.00;;;13.20;99.90;;;14.03;89.73;97633.06;5117236;28;20236;-60
2022/05/25 00:04:24;;;;;;;1.83;1.73;;;13.30;99.90;;;14.05;90.47;97622.03;5121980;28;20236;-60
2022/05/25 00:06:57;;;;;;;1.90;1.80;;;13.40;99.90;;;14.09;89.38;97610.16;5122897;28;20274;-60
2022/05/25 00:09:30;;;;;;;2.30;2.20;;;13.40;99.90;;;14.10;89.95;97601.63;5127777;28;20623;-60
2022/05/25 00:12:07;;;;;;;2.25;2.05;;;13.50;99.90;;;13.97;88.46;97595.13;5124732;28;20255;-60
2022/05/25 00:14:40;;;;;;;2.85;2.13;;;13.30;99.90;;;14.08;88.22;97600.69;5122045;28;20608;-60
2022/05/25 00:17:13;;;;;;;2.85;2.05;;;13.30;99.90;;;14.12;89.63;97598.28;5124586;28;20278;-59
2022/05/25 00:20:02;;;;;;;2.40;1.85;;;13.50;99.90;;;14.14;89.49;97598.38;5121912;28;20313;-60
2022/05/25 00:22:49;;;;;;;2.67;1.90;;;13.50;99.90;;;14.18;89.54;97600.22;5115579;28;20204;-60
2022/05/25 00:25:27;;;;;;;2.10;2.00;;;13.50;99.90;;;14.19;89.30;97596.81;5127271;28;20252;-59
2022/05/25 00:28:03;;;;;;;2.30;2.10;;;13.60;99.90;;;14.21;88.35;97615.78;5136124;28;20715;-60
2022/05/25 00:30:37;;;;;;;2.15;2.00;;;13.50;99.90;;;14.21;88.95;97613.19;5119043;28;20204;-58
2022/05/25 00:33:10;;;;;;;2.25;2.05;;;13.50;99.90;;;14.24;87.75;97615.88;5116950;28;20210;-59
2022/05/25 00:35:44;;;;;;;2.20;2.00;;;13.60;99.90;;;14.19;89.31;97619.97;5112015;28;20234;-59
2022/05/25 00:38:17;;;;;;;2.67;2.15;;;13.50;99.90;;;14.20;89.43;97624.31;5120526;28;20197;-58
2022/05/25 00:40:50;;;;;;;2.58;1.90;;;13.50;99.90;;;14.16;89.94;97622.41;5120414;28;20201;-60
2022/05/25 00:43:24;;;;;;;2.33;2.10;;;13.50;99.90;;;14.17;89.42;97619.91;5123274;28;20236;-60
2022/05/25 00:46:03;;;;;;;1.88;1.77;;;13.40;99.90;;;14.15;89.45;97615.53;5112230;28;20207;-60
2022/05/25 00:48:41;;;;;;;2.75;2.10;;;13.40;99.90;;;14.18;90.19;97610.50;5115790;28;20251;-60
2022/05/25 00:51:21;;;;;;;3.05;2.10;;;13.50;99.90;;;14.17;90.80;97609.63;5112328;28;20209;-59
2022/05/25 00:53:59;;;;;;;2.28;2.17;;;13.50;99.90;;;14.18;90.05;97615.66;5120871;28;20726;-60
2022/05/25 00:56:34;;;;;;;2.60;1.90;;;13.50;99.90;;;14.19;90.81;97628.59;5115251;28;20699;-59
2022/05/25 00:59:12;;;;;;;3.22;2.00;;;13.60;99.90;;;14.17;90.63;97639.63;5116793;28;20660;-60
2022/05/25 01:01:47;;;;;;;1.90;1.80;;;13.50;99.90;;;14.19;90.57;97640.53;5121428;28;20664;-59
2022/05/25 01:04:20;;;;;;;2.25;2.15;;;13.50;99.90;;;14.18;89.48;97638.78;5125471;28;20204;-59
2022/05/25 01:07:22;;;;;;;2.50;2.30;;;13.50;99.90;;;14.15;88.93;97646.38;5115409;28;20279;-60
2022/05/25 01:10:11;;;;;;;2.20;2.10;;;13.50;99.90;;;14.10;88.98;97645.31;5121779;28;20239;-58
2022/05/25 01:13:03;;;;;;;1.98;1.88;;;13.50;99.90;;;14.11;89.82;97637.69;5118371;28;20228;-60
2022/05/25 01:15:52;;;;;;;2.28;2.10;;;13.40;99.90;;;14.06;89.00;97653.72;5117719;28;20243;-59
2022/05/25 01:18:33;;;;;;;2.30;2.10;;;13.40;99.90;;;14.05;89.43;97649.38;5117821;28;20211;-58
2022/05/25 01:21:16;;;;;;;2.45;2.20;;;13.30;99.90;;;13.98;90.19;97659.44;5120597;28;20205;-55
2022/05/25 01:24:17;;;;;;;2.10;2.00;;;13.30;99.90;;;14.07;90.11;97652.91;5122158;28;20345;-60
2022/05/25 01:27:26;;;;;;;1.90;1.80;;;13.40;99.90;;;14.10;89.30;97668.44;5117047;28;20721;-60
2022/05/25 01:30:11;;;;;;;2.13;1.92;;;13.40;99.90;;;14.11;89.99;97657.38;5125018;28;20286;-56
2022/05/25 01:32:56;;;;;;;3.03;2.10;;;13.50;99.90;;;14.06;89.57;97664.88;5141035;28;20208;-59
2022/05/25 01:35:42;;;;;;;1.98;1.80;;;13.30;99.90;;;14.07;89.82;97671.78;5132873;28;20262;-60
2022/05/25 01:38:21;;;;;;;2.22;2.00;;;13.40;99.90;;;14.07;90.65;97666.63;5118658;28;20260;-59
2022/05/25 01:41:02;;;;;;;2.00;1.83;;;13.40;99.90;;;14.09;89.70;97671.84;5136820;28;20251;-59
2022/05/25 01:43:41;;;;;;;2.38;2.17;;;13.40;99.90;;;14.08;89.02;97667.50;5140343;28;20297;-59
2022/05/25 01:46:23;;;;;;;2.15;2.05;;;13.40;99.90;;;14.12;89.23;97671.97;5125363;28;20263;-60
2022/05/25 01:48:57;;;;;;;2.38;2.17;;;13.40;99.90;;;14.09;89.14;97664.13;5166610;28;20295;-57
2022/05/25 01:51:38;;;;;;;1.98;1.88;;;13.40;99.90;;;14.10;89.20;97663.31;5118634;28;20224;-58
2022/05/25 01:54:19;;;;;;;1.95;1.70;;;13.40;99.90;;;14.05;90.07;97657.09;5120009;28;20232;-58
2022/05/25 01:56:55;;;;;;;2.00;1.90;;;13.40;99.90;;;14.04;89.43;97657.91;5133300;28;20224;-57
2022/05/25 01:59:28;;;;;;;2.28;2.08;;;13.40;99.90;;;14.00;89.88;97656.06;5128724;28;20251;-58
2022/05/25 02:05:00;;;;;;;2.13;1.95;;;13.30;99.90;;;14.01;89.63;97658.66;5113875;28;20205;-56
2022/05/25 02:07:53;;;;;;;2.33;1.90;;;13.30;99.90;;;13.96;89.06;97663.66;5120457;28;20284;-56
2022/05/25 02:10:43;;;;;;;2.00;1.90;;;13.20;99.90;;;13.98;88.99;97664.56;5114727;28;20229;-57
2022/05/25 02:13:31;;;;;;;3.63;2.03;;;13.30;99.90;;;14.04;89.47;97673.34;5161283;28;20213;-57
2022/05/25 02:16:18;;;;;;;1.90;1.80;;;13.30;99.90;;;14.06;88.49;97671.72;5118361;28;20236;-56
2022/05/25 02:19:00;;;;;;;2.20;2.10;;;13.30;99.90;;;14.05;89.92;97672.53;5117069;28;20233;-58
2022/05/25 02:21:42;;;;;;;2.22;2.03;;;13.40;99.90;;;14.11;89.64;97675.38;5118700;28;20233;-56
2022/05/25 02:24:23;;;;;;;2.15;2.05;;;13.40;99.90;;;14.14;89.38;97667.78;5121591;28;20295;-56
2022/05/25 02:27:02;;;;;;;2.28;2.08;;;13.30;99.90;;;14.02;89.71;97660.44;5120503;28;20243;-58
2022/05/25 02:29:39;;;;;;;2.83;2.20;;;13.30;99.90;;;13.88;89.51;97652.19;5121269;28;20232;-54
2022/05/25 02:32:18;;;;;;;2.50;2.30;;;13.10;99.90;;;13.85;89.62;97657.19;5126864;28;20201;-57
2022/05/25 02:34:54;;;;;;;2.55;2.17;;;13.10;99.90;;;13.81;89.89;97659.56;5118678;28;20286;-55
2022/05/25 02:37:32;;;;;;;2.40;2.20;;;13.00;99.90;;;13.86;90.89;97669.22;5140371;28;20231;-57
2022/05/25 02:40:09;;;;;;;2.10;1.85;;;13.10;99.90;;;13.88;90.47;97665.03;5131656;28;20668;-57
2022/05/25 02:42:43;;;;;;;1.80;1.70;;;13.20;99.90;;;13.89;89.78;97664.19;5127262;28;20227;-58
2022/05/25 02:45:16;;;;;;;2.17;2.00;;;13.20;99.90;;;13.91;91.13;97670.28;5119393;28;20588;-57
2022/05/25 02:47:50;;;;;;;2.58;2.10;;;13.20;99.90;;;14.01;88.96;97674.09;5120369;28;20758;-58
2022/05/25 02:50:24;;;;;;;2.00;1.90;;;13.30;99.90;;;13.96;89.77;97676.50;5137890;28;20245;-52
2022/05/25 02:52:58;;;;;;;3.65;2.15;;;13.20;99.90;;;13.93;90.14;97667.75;5125847;28;20558;-58
2022/05/25 02:55:32;;;;;;;1.88;1.88;;;13.20;99.90;;;13.99;89.66;97673.16;5131851;28;20435;-55
2022/05/25 02:58:05;;;;;;;3.25;2.00;;;13.30;99.90;;;14.03;88.82;97672.47;5145374;28;20270;-55
2022/05/25 03:00:38;;;;;;;2.00;1.90;;;13.30;99.90;;;13.96;88.89;97681.63;5143988;28;20656;-56
2022/05/25 03:03:12;;;;;;;2.25;2.08;;;13.20;99.90;;;13.98;88.64;97684.25;5124865;28;20696;-54
2022/05/25 03:05:47;;;;;;;4.38;2.40;;;13.20;99.90;;;13.97;89.58;97692.78;5127479;28;20204;-55
2022/05/25 03:08:20;;;;;;;2.90;2.13;;;13.30;99.90;;;13.97;90.73;97698.78;5127276;28;20307;-54
2022/05/25 03:10:53;;;;;;;2.08;1.98;;;13.30;99.90;;;14.02;89.33;97696.44;5129629;28;20658;-59
2022/05/25 03:13:26;;;;;;;2.70;2.35;;;13.30;99.90;;;14.03;89.67;97697.31;5120981;28;20232;-59
2022/05/25 03:16:01;;;;;;;2.10;2.00;;;13.30;99.90;;;14.03;90.71;97707.59;5125556;28;20205;-57
2022/05/25 03:18:34;;;;;;;2.33;2.22;;;13.30;99.90;;;13.84;91.01;97701.66;5119588;28;20200;-61
2022/05/25 03:21:09;;;;;;;2.38;2.17;;;13.20;99.90;;;13.92;90.96;97702.88;5134878;28;20209;-60
2022/05/25 03:23:42;;;;;;;2.22;2.13;;;13.20;99.90;;;13.98;92.13;97700.53;5143227;28;20570;-60
2022/05/25 03:26:16;;;;;;;2.70;2.50;;;13.30;99.90;;;13.98;91.39;97710.81;5132111;28;20316;-61
2022/05/25 03:28:50;;;;;;;2.45;2.00;;;13.30;99.90;;;14.01;91.87;97714.34;5144819;28;20220;-61
2022/05/25 03:31:23;;;;;;;2.30;2.10;;;13.30;99.90;;;14.06;90.70;97712.84;5125539;28;20205;-61
2022/05/25 03:33:56;;;;;;;2.15;1.95;;;13.30;99.90;;;14.10;90.52;97720.72;5150763;28;20207;-61
2022/05/25 03:36:30;;;;;;;3.00;2.20;;;13.40;99.90;;;14.12;90.95;97723.38;5149385;28;20278;-60
2022/05/25 03:39:03;;;;;;;3.45;2.30;;;13.40;99.90;;;14.10;89.84;97727.56;5121665;28;20240;-59
2022/05/25 03:41:36;;;;;;;2.42;2.22;;;13.30;99.90;;;14.07;90.68;97725.75;5139817;28;20664;-61
2022/05/25 03:44:21;;;;;;;3.20;2.15;;;13.30;99.90;;;14.02;91.48;97732.41;5150299;28;20718;-61
2022/05/25 03:46:55;;;;;;;2.83;2.20;;;13.30;99.90;;;13.93;90.46;97727.72;5114640;28;20691;-51
2022/05/25 03:49:28;;;;;;;2.63;2.42;;;13.20;99.90;;;13.93;91.33;97727.72;5122099;28;20224;-56
2022/05/25 03:52:04;;;;;;;2.50;2.40;;;13.20;99.90;;;13.94;91.43;97734.66;5133959;28;20233;-54
2022/05/25 03:54:38;;;;;;;2.35;2.13;;;13.20;99.90;;;13.97;90.85;97731.34;5117417;28;20208;-55
2022/05/25 03:57:11;;;;;;;2.50;2.30;;;13.20;99.90;;;13.92;90.75;97738.84;5123890;28;20260;-52
2022/05/25 03:59:45;;;;;;;2.30;2.20;;;13.20;99.90;;;13.95;90.92;97743.22;5119176;28;20684;-51
2022/05/25 04:02:19;;;;;;;2.28;2.08;;;13.30;99.90;;;13.91;90.47;97747.38;5147854;28;20693;-54
2022/05/25 04:05:07;;;;;;;2.22;2.13;;;13.20;99.90;;;13.91;92.70;97749.94;5135946;28;20295;-55
2022/05/25 04:07:44;;;;;;;1.90;1.80;;;13.30;99.90;;;13.98;91.33;97751.94;5127240;28;20231;-52
2022/05/25 04:10:20;;;;;;;2.22;2.13;;;13.30;99.90;;;14.01;91.27;97752.88;5123530;28;20601;-56
2022/05/25 04:12:53;;;;;;;2.60;2.40;;;13.20;99.90;;;14.00;92.10;97758.84;5127865;28;20292;-58
2022/05/25 04:15:29;;;;;;;2.38;2.28;;;13.30;99.90;;;14.00;91.64;97761.41;5144286;28;20209;-58
2022/05/25 04:18:02;;;;;;;2.30;2.00;;;13.30;99.90;;;14.02;91.00;97752.06;5118297;28;20216;-51
2022/05/25 04:20:35;;;;;;;1.95;1.85;;;13.30;99.90;;;13.97;91.40;97762.16;5116799;28;20233;-56
2022/05/25 04:23:12;;;;;;;2.40;2.30;;;13.20;99.90;;;13.95;91.01;97764.66;5119966;28;20204;-51
2022/05/25 04:25:45;;;;;;;2.03;1.92;;;13.30;99.90;;;14.00;90.24;97769.13;5121924;28;20204;-54
2022/05/25 04:28:18;;;;;;;2.03;1.88;;;13.30;99.90;;;14.02;90.69;97775.19;5122146;28;20263;-56
2022/05/25 04:30:51;;;;;;;2.00;1.90;;;13.30;99.90;;;14.03;90.76;97780.41;5147227;28;20228;-61
2022/05/25 04:33:27;;;;;;;3.60;2.30;;;13.30;99.90;;;14.04;91.36;97784.72;5149835;28;20201;-53
2022/05/25 04:36:00;;;;;;;2.40;2.10;;;13.30;99.90;;;14.08;90.67;97783.16;5142117;28;20200;-51
2022/05/25 04:38:36;;;;;;;2.03;1.92;;;13.30;99.90;;;14.13;90.19;97786.81;5126792;28;20231;-61
2022/05/25 04:41:09;;;;;;;2.00;1.90;;;13.30;99.90;;;14.10;90.45;97797.81;5147958;28;20192;-60
2022/05/25 04:43:43;;;;;;;3.88;2.30;;;13.30;99.90;;;14.09;90.46;97790.06;5153223;28;20266;-60
2022/05/25 04:46:16;;;;;;;2.55;2.30;;;13.30;99.90;;;14.08;90.32;97788.28;5119613;28;20236;-60
2022/05/25 04:48:49;;;;;;;2.47;2.38;;;13.30;99.90;;;14.07;90.82;97796.84;5151684;28;20700;-60
2022/05/25 04:51:22;;;;;;;2.40;2.30;;;13.30;99.90;;;14.05;90.33;97804.50;5142402;28;20298;-59
2022/05/25 04:53:57;;;;;;;2.40;2.30;;;13.30;99.90;;;14.10;90.60;97809.81;5119532;28;20745;-59
2022/05/25 04:59:21;;;;;;;2.55;2.35;;;13.30;99.90;;;14.09;90.26;97802.94;5120838;28;20669;-59
2022/05/25 05:01:54;;;;;;;2.03;1.92;;;13.30;99.90;;;14.13;89.89;97813.38;5137823;28;20229;-60
2022/05/25 05:04:27;;;;;;;3.60;2.50;;;13.30;99.90;;;14.10;89.21;97822.66;5117814;28;20683;-60
2022/05/25 05:07:00;;;;;;;2.50;2.30;;;13.30;99.90;;;14.07;90.52;97823.41;5166881;28;20220;-60
2022/05/25 05:09:36;;;;;;;2.15;2.05;;;13.30;99.90;;;14.08;90.37;97824.28;5123685;28;20346;-56
2022/05/25 05:12:10;;;;;;;2.50;2.30;;;13.40;99.90;;;14.14;90.60;97830.59;5120237;28;20235;-55
2022/05/25 05:14:45;;;;;;;2.60;2.50;;;13.40;99.90;;;14.21;90.63;97836.84;5122952;28;20329;-59
2022/05/25 05:17:18;;;;;;;3.13;2.53;;;13.50;99.90;;;14.28;90.87;97841.44;5123645;28;20244;-60
2022/05/25 05:19:51;;;;;;;2.60;2.33;;;13.50;99.90;;;14.32;90.00;97845.91;5119431;28;20243;-60
2022/05/25 05:22:24;;;;;;;2.85;2.47;;;13.50;99.90;;;14.28;89.78;97849.16;5121675;28;20680;-60
2022/05/25 05:24:59;;;;;;;2.75;2.40;;;13.50;99.90;;;14.36;89.98;97849.47;5120371;28;20461;-59
2022/05/25 05:27:32;;;;;;;2.55;2.45;;;13.60;99.90;;;14.37;89.86;97862.41;5120553;28;20284;-58
2022/05/25 05:30:10;;;;;;;2.83;2.53;;;13.60;99.90;;;14.45;89.67;97857.59;5123873;28;20264;-60
2022/05/25 05:32:43;;;;;;;2.45;2.25;;;13.70;99.90;;;14.46;89.10;97866.19;5123329;28;20203;-60
2022/05/25 05:35:16;;;;;;;2.63;2.28;;;13.70;99.90;;;14.46;89.06;97861.03;5120091;28;20236;-60
2022/05/25 05:37:53;;;;;;;2.60;2.40;;;13.70;99.90;;;14.50;89.14;97862.91;5127570;28;20224;-60
2022/05/25 05:40:29;;;;;;;2.83;2.53;;;13.70;99.90;;;14.54;89.55;97867.41;5118894;28;20617;-60
2022/05/25 05:43:04;;;;;;;2.45;2.25;;;13.70;99.90;;;14.60;89.46;97867.66;5119220;28;20193;-58
2022/05/25 05:45:42;;;;;;;2.63;2.42;;;13.80;99.90;;;14.63;88.15;97865.22;5123593;28;20239;-60
2022/05/25 05:48:19;;;;;;;2.88;2.60;;;13.80;99.90;;;14.68;88.24;97871.44;5118977;28;20317;-60
2022/05/25 05:50:55;;;;;;;2.53;2.33;;;13.90;99.90;;;14.77;88.46;97876.06;5119534;28;20640;-59
2022/05/25 05:53:29;;;;;;;2.17;2.08;;;13.90;99.90;;;14.84;87.68;97873.78;5120440;28;20207;-60
2022/05/25 05:56:05;;;;;;;2.65;2.55;;;14.00;99.90;;;14.91;87.59;97881.75;5124263;28;20227;-60
2022/05/25 05:58:39;;;;;;;2.70;2.50;;;14.10;99.90;;;14.96;86.84;97883.69;5124097;28;20201;-60
2022/05/25 06:01:12;;;;;;;2.60;2.40;;;14.10;99.90;;;15.08;86.59;97883.34;5122815;28;20197;-60
2022/05/25 06:03:45;;;;;;;2.25;2.15;;;14.20;99.90;;;15.18;85.19;97882.88;5117700;28;20207;-60
2022/05/25 06:06:18;;;;;;;3.50;2.58;;;14.30;99.90;;;15.39;84.10;97887.09;5121242;28;20569;-60
2022/05/25 06:08:52;;;;;;;2.80;2.60;;;14.50;99.90;;;15.76;83.06;97892.84;5123074;28;20273;-60
2022/05/25 06:11:27;;;;;;;2.70;2.50;;;14.70;99.90;;;16.13;81.10;97894.19;5125478;28;20204;-60
2022/05/25 06:14:00;;;;;;;2.33;2.20;;;15.10;99.90;;;16.63;79.43;97894.22;5124419;28;20200;-60
2022/05/25 06:19:27;;;;;;;1.92;1.80;;;16.20;99.90;;;18.27;70.74;97886.34;5122196;28;21116;-60
2022/05/25 06:22:02;;;;;;;2.05;1.85;;;17.00;99.90;;;19.06;65.26;97889.25;5123101;28;20203;-59
2022/05/25 06:24:40;;;;;;;1.90;1.80;;;17.60;99.90;;;19.88;60.63;97897.16;5122739;28;20208;-60
2022/05/25 06:27:15;;;;;;;2.83;1.95;;;18.30;99.90;;;20.58;57.92;97901.16;5122468;28;20232;-59
2022/05/25 06:29:50;;;;;;;1.70;1.60;;;18.80;99.90;;;21.36;54.28;97909.38;5127292;28;20654;-60
2022/05/25 06:32:24;;;;;;;1.60;1.50;;;19.50;99.90;;;21.90;51.91;97900.66;5131771;28;20291;-61
2022/05/25 06:34:58;;;;;;;2.00;1.70;;;19.90;99.90;;;22.39;49.69;97897.78;5122564;28;20666;-61
2022/05/25 06:37:31;;;;;;;2.55;1.80;;;20.20;98.80;;;22.67;49.04;97899.81;5126204;28;20260;-60
2022/05/25 06:40:05;;;;;;;1.77;1.45;;;20.50;98.40;;;22.97;47.87;97907.94;5129349;28;20197;-61
2022/05/25 06:42:41;;;;;;;1.40;1.30;;;20.80;97.40;;;23.15;45.62;97913.31;5122307;28;20213;-61
2022/05/25 06:45:15;;;;;;;2.05;1.33;;;21.10;95.40;;;23.50;44.47;97917.91;5122493;28;20738;-61
2022/05/25 06:47:48;;;;;;;2.75;1.50;;;21.20;94.60;;;23.79;43.00;97924.22;5117923;28;20665;-61
2022/05/25 06:50:21;;;;;;;1.20;1.20;;;21.50;93.40;;;23.72;42.86;97930.28;5138839;28;20301;-61
2022/05/25 06:52:54;;;;;;;2.15;1.30;;;21.40;93.20;;;23.98;42.51;97924.28;5125734;28;20197;-61
2022/05/25 06:55:27;;;;;;;1.75;1.20;;;21.60;92.70;;;24.32;41.62;97921.81;5123555;28;20758;-61
2022/05/25 06:58:02;;;;;;;1.52;1.10;;;21.80;92.60;;;24.37;41.10;97933.16;5127314;28;20730;-60
2022/05/25 07:00:35;;;;;;;1.33;1.23;;;21.90;91.90;;;24.44;41.06;97938.47;5120520;28;20231;-61
2022/05/25 07:03:08;;;;;;;2.25;1.30;;;22.00;91.60;;;24.72;39.98;97928.06;5123229;28;20722;-60
2022/05/25 07:05:41;;;;;;;2.08;1.10;;;22.20;91.10;;;24.72;40.71;97930.69;5120748;28;20212;-61
2022/05/25 07:08:15;;;;;;;2.40;1.45;;;22.30;91.20;;;24.48;41.23;97936.72;5116601;28;20278;-60
2022/05/25 07:10:48;;;;;;;2.45;1.48;;;22.30;91.50;;;24.23;41.59;97931.38;5117512;28;20260;-62
2022/05/25 07:13:23;;;;;;;3.28;1.30;;;22.20;91.60;;;24.17;42.40;97938.31;5120517;28;20304;-61
2022/05/25 07:15:57;;;;;;;1.63;1.33;;;22.20;91.80;;;24.41;41.41;97942.75;5120205;28;20266;-61
2022/05/25 07:18:31;;;;;;;1.90;1.40;;;22.20;91.10;;;24.82;40.06;97942.91;5145588;28;20294;-61
2022/05/25 07:21:09;;;;;;;1.52;1.42;;;22.30;90.60;;;24.53;39.87;97940.22;5119728;28;20617;-62
2022/05/25 07:23:44;;;;;;;1.50;1.40;;;22.10;90.80;;;24.46;41.10;97935.84;5119275;28;20196;-62
2022/05/25 07:26:18;;;;;;;2.30;1.42;;;21.90;91.10;;;24.52;40.21;97945.44;5116419;28;20601;-62
2022/05/25 07:28:53;;;;;;;1.70;1.60;;;22.10;90.90;;;24.62;39.40;97944.63;5121025;28;20203;-62
2022/05/25 07:31:32;;;;;;;2.15;1.27;;;22.30;89.70;;;24.46;39.57;97948.91;5123224;28;20326;-61
2022/05/25 07:34:09;;;;;;;3.30;1.60;;;22.20;90.10;;;24.09;41.59;97947.84;5148137;28;20292;-61
2022/05/25 07:36:46;;;;;;;1.65;1.55;;;21.80;91.00;;;24.16;41.02;97953.13;5125832;28;20621;-61
2022/05/25 07:39:22;;;;;;;1.40;1.30;;;21.90;90.70;;;24.51;40.08;97952.41;5122023;28;20253;-61
2022/05/25 07:42:00;;;;;;;1.95;1.70;;;22.00;90.30;;;23.88;41.80;97959.06;5122850;28;20227;-62
2022/05/25 07:44:38;;;;;;;2.92;1.67;;;21.90;91.10;;;24.10;41.14;97960.06;5122632;28;20701;-61
2022/05/25 07:47:12;;;;;;;2.38;1.45;;;21.90;90.70;;;24.29;39.98;97956.66;5119849;28;20247;-63
2022/05/25 07:49:46;;;;;;;1.92;1.30;;;22.00;90.20;;;24.25;40.33;97957.50;5118744;28;20195;-59
2022/05/25 07:52:21;;;;;;;1.80;1.30;;;21.90;90.50;;;24.92;39.62;97956.84;5118662;28;20633;-60
2022/05/25 07:54:56;;;;;;;2.83;1.40;;;22.30;90.20;;;25.24;38.89;97963.91;5120058;28;20200;-60
2022/05/25 07:57:29;;;;;;;2.10;1.58;;;22.60;90.00;;;25.36;37.98;97967.41;5122562;28;20267;-58
2022/05/25 08:00:05;;;;;;;4.00;1.60;;;22.90;88.10;;;25.15;37.36;97962.16;5119843;28;20200;-59
2022/05/25 08:05:44;;;;;;;2.22;1.50;;;22.90;86.80;;;25.27;36.88;97964.78;5121181;28;20204;-59
2022/05/25 08:08:22;;;;;;;1.90;1.40;;;22.90;85.30;;;25.27;37.89;97961.31;5115565;28;20207;-60
2022/05/25 08:11:06;;;;;;;2.08;1.50;;;23.00;85.90;;;25.61;36.57;97960.41;5116461;28;20216;-57
2022/05/25 08:13:43;;;;;;;2.50;1.75;;;23.40;83.70;;;25.61;36.21;97957.81;5118141;28;20236;-60
2022/05/25 08:16:17;;;;;;;2.42;1.33;;;23.50;82.30;;;25.82;35.93;97961.25;5122045;28;20286;-59
2022/05/25 08:18:51;;;;;;;2.92;1.75;;;23.60;81.70;;;25.60;35.81;97961.28;5110581;28;20200;-59
2022/05/25 08:21:24;;;;;;;3.15;1.83;;;23.60;81.10;;;25.49;35.89;97968.25;5100480;28;20790;-60
2022/05/25 08:24:17;;;;;;;2.60;1.50;;;23.30;82.00;;;25.30;34.87;97959.56;5102225;28;20211;-58
2022/05/25 08:26:50;;;;;;;3.35;1.67;;;23.30;79.40;;;25.10;35.65;97956.91;5101908;28;20374;-59
2022/05/25 08:29:25;;;;;;;9.02;1.88;;;23.40;80.20;;;25.13;35.68;97959.50;5101872;28;20244;-60
2022/05/25 08:31:59;;;;;;;1.85;1.10;;;23.40;79.00;;;25.27;33.86;97950.84;5100727;28;20781;-60
2022/05/25 08:34:33;;;;;;;3.50;1.50;;;23.60;76.30;;;25.17;35.11;97948.19;5108470;28;20886;-59
2022/05/25 08:37:12;;;;;;;2.42;1.27;;;23.60;78.30;;;25.13;35.29;97949.06;5120811;28;20314;-60
2022/05/25 08:39:45;;;;;;;3.22;1.65;;;23.60;78.80;;;25.22;35.65;97957.81;5117838;28;20196;-60
2022/05/25 08:42:24;;;;;;;1.75;1.30;;;23.80;79.80;;;25.31;33.74;97958.69;5119107;28;20200;-59
2022/05/25 08:44:59;;;;;;;2.10;1.30;;;24.00;75.10;;;25.52;34.22;97962.16;5110074;28;20273;-57
2022/05/25 08:47:36;;;;;;;2.58;1.48;;;24.10;75.30;;;25.13;34.37;97967.38;5114215;28;20240;-57
2022/05/25 08:50:10;;;;;;;3.97;1.38;;;23.80;75.10;;;24.91;35.61;97957.75;5118685;28;20239;-59
2022/05/25 08:52:45;;;;;;;2.20;1.40;;;23.60;77.40;;;24.84;35.17;97953.34;5117137;28;20247;-57
2022/05/25 08:55:37;;;;;;;4.25;1.50;;;23.60;77.00;;;24.90;34.75;97953.41;5118616;28;20584;-58
2022/05/25 08:58:13;;;;;;;3.78;1.60;;;23.80;76.10;;;24.87;35.51;97958.63;5118176;28;20302;-59
2022/05/25 09:00:49;;;;;;;1.83;1.20;;;23.70;77.20;;;24.58;36.06;97948.97;5117127;28;20207;-60
2022/05/25 09:03:38;;;;;;;1.38;1.27;;;23.30;77.10;;;24.47;36.08;97953.28;5113248;28;20212;-58
2022/05/25 09:06:24;;;;;;;1.20;1.10;;;23.40;76.40;;;24.67;34.05;97943.75;5115571;28;20220;-58
2022/05/25 09:09:05;;;;;;;1.88;1.00;;;23.50;73.00;;;24.73;33.70;97954.22;5117671;28;20207;-58
2022/05/25 09:11:45;;;;;;;2.13;1.38;;;23.70;72.60;;;24.69;34.51;97952.44;5117631;28;20244;-57
2022/05/25 09:14:25;;;;;;;1.27;1.20;;;23.60;74.80;;;24.28;35.67;97955.78;5119156;28;20196;-59
2022/05/25 09:17:01;;;;;;;2.58;1.20;;;23.10;76.20;;;24.19;34.95;97942.69;5113519;28;20636;-57
2022/05/25 09:19:41;;;;;;;2.15;1.35;;;22.80;75.20;;;24.00;35.86;97954.78;5117334;28;20199;-58
2022/05/25 09:22:20;;;;;;;1.60;1.20;;;22.90;75.80;;;24.04;35.25;97953.94;5119626;28;20238;-59
2022/05/25 09:24:57;;;;;;;1.65;1.20;;;22.90;75.30;;;23.99;34.29;97953.03;5118616;28;20232;-58
2022/05/25 09:27:40;;;;;;;1.15;1.02;;;23.00;73.10;;;23.99;36.32;97952.16;5118350;28;20821;-59
2022/05/25 09:30:15;;;;;;;1.58;1.40;;;22.90;76.90;;;24.11;34.86;97952.22;5117466;28;20257;-60
2022/05/25 09:32:52;;;;;;;1.40;1.30;;;23.10;74.90;;;24.20;34.89;97952.25;5117815;28;20285;-59
2022/05/25 09:35:32;;;;;;;2.08;1.20;;;23.10;74.20;;;24.16;34.53;97954.88;5116354;28;20212;-57
2022/05/25 09:38:13;;;;;;;1.88;1.50;;;23.10;74.10;;;24.17;34.93;97954.84;5114304;28;20220;-58
2022/05/25 09:40:51;;;;;;;2.67;1.30;;;23.20;74.50;;;24.43;35.00;97956.75;5110922;28;20220;-59
2022/05/25 09:43:26;;;;;;;1.50;1.10;;;23.50;74.70;;;24.57;34.71;97965.50;5115415;28;20196;-59
2022/05/25 09:46:09;;;;;;;1.58;1.10;;;23.60;73.70;;;24.36;34.52;97953.22;5118986;28;20192;-59
2022/05/25 09:48:50;;;;;;;1.33;1.10;;;23.20;74.10;;;24.18;35.75;97971.41;5120633;28;20242;-58
2022/05/25 09:51:32;;;;;;;1.42;1.33;;;22.90;76.50;;;23.81;36.23;97981.66;5114443;28;20297;-57
2022/05/25 09:54:13;;;;;;;2.10;1.35;;;22.50;76.80;;;23.63;37.15;97974.53;5161207;28;20236;-59
2022/05/25 09:56:52;;;;;;;1.63;1.52;;;22.20;78.40;;;23.70;37.72;97984.19;5117520;28;20305;-59
2022/05/25 09:59:30;;;;;;;2.03;1.20;;;22.50;78.00;;;23.70;36.71;97980.69;5114806;28;20660;-57
2022/05/25 10:02:21;;;;;;;2.25;1.25;;;22.50;76.80;;;23.81;36.52;97966.88;5125292;28;20227;-58
2022/05/25 10:04:56;;;;;;;2.35;1.30;;;22.70;76.80;;;24.22;36.37;97970.56;5115927;28;20213;-60
2022/05/25 10:07:37;;;;;;;1.50;1.40;;;23.20;76.70;;;24.24;36.30;97968.84;5116917;28;20224;-60
2022/05/25 10:10:13;;;;;;;1.40;1.30;;;23.30;75.60;;;24.27;36.17;97974.09;5112644;28;20193;-61
2022/05/25 10:12:46;;;;;;;2.20;1.48;;;23.20;76.80;;;23.36;37.69;97970.84;5114118;28;20220;-60
2022/05/25 10:15:33;;;;;;;1.50;1.30;;;22.50;77.60;;;23.32;38.59;97974.31;5117507;28;20244;-59
2022/05/25 10:18:08;;;;;;;2.70;1.40;;;22.00;80.60;;;23.16;38.65;97973.28;5121985;28;20627;-58
2022/05/25 10:20:47;;;;;;;1.08;1.08;;;21.80;80.60;;;22.76;39.95;97972.00;5114629;28;20650;-60
2022/05/25 10:23:24;;;;;;;1.20;1.20;;;21.60;81.60;;;22.59;40.30;97983.97;5114701;28;20656;-59
2022/05/25 10:26:08;;;;;;;1.50;1.40;;;21.30;82.80;;;22.72;39.66;97975.44;5116368;28;20587;-60
2022/05/25 10:28:48;;;;;;;1.60;1.50;;;21.40;82.10;;;22.79;38.96;97969.44;5114793;28;20231;-60
2022/05/25 10:37:20;;;;;;;1.52;1.38;;;22.00;79.50;;;23.13;36.83;97964.56;5092074;28;20637;-60
2022/05/25 10:40:05;;;;;;;1.60;1.30;;;22.10;76.70;;;23.12;37.50;97965.41;5115316;28;20211;-60
2022/05/25 10:42:50;;;;;;;2.78;1.55;;;22.10;77.70;;;23.04;37.37;97972.31;5117607;28;20212;-60
2022/05/25 10:45:33;;;;;;;1.33;1.25;;;22.00;77.70;;;23.03;37.70;97967.94;5114985;28;20679;-60
2022/05/25 10:48:19;;;;;;;2.10;1.58;;;22.00;78.00;;;23.19;37.37;97975.06;5118888;28;20228;-59
2022/05/25 10:50:57;;;;;;;1.52;1.23;;;22.10;77.60;;;23.03;38.01;97970.56;5117774;28;20197;-60
2022/05/25 10:56:54;;;;;;;2.10;1.55;;;21.70;80.70;;;22.73;39.46;97977.19;5119005;28;20248;-60
2022/05/25 10:59:34;;;;;;;1.45;1.35;;;21.60;80.00;;;22.94;39.18;97974.78;5121039;28;20258;-61
2022/05/25 11:02:29;;;;;;;1.55;1.20;;;21.80;80.40;;;22.96;39.07;97974.84;5116272;28;20197;-60
2022/05/25 11:05:18;;;;;;;2.40;1.42;;;21.90;80.20;;;22.98;38.20;97977.44;5113297;28;20204;-60
2022/05/25 11:07:56;;;;;;;1.60;1.50;;;21.90;79.10;;;22.83;39.22;97972.94;5119824;28;20221;-58
2022/05/25 11:10:48;;;;;;;1.85;1.33;;;21.70;80.00;;;23.01;39.93;97983.59;5120121;28;20239;-60
2022/05/25 11:14:05;;;;;;;1.33;1.20;;;21.80;81.50;;;23.07;39.12;97974.97;5119891;28;20310;-60
2022/05/25 11:16:53;;;;;;;1.90;1.42;;;21.90;80.70;;;23.16;39.41;97973.28;5112348;28;20221;-58
2022/05/25 11:19:51;;;;;;;1.92;1.63;;;22.00;81.10;;;23.08;38.47;97979.31;5118466;28;20201;-58
2022/05/25 11:22:41;;;;;;;1.52;1.42;;;22.00;80.10;;;23.14;39.17;97979.34;5117128;28;20311;-59
2022/05/25 11:25:45;;;;;;;1.67;1.58;;;22.00;80.90;;;23.21;38.20;97989.00;5119546;28;20240;-58